New Lisbon, NJ (08064)

12:20 PM EST on December 20, 2014 (GMT -0500)
Presidential Lakes | Change Station
CLOSE
Current Station
Personal Weather Station
Location: Browns Mills, NJ
Elevation: 118 ft
Nearby Weather Stations

Elev 118 ft 39.92 °N, 74.57 °W | Updated 4 minutes ago

Overcast
Overcast
33.3 °F
Feels Like 33 °F
N
2.7
Wind Variable Wind from ENE

Today
High -- | Low -- °F
--% Chance of Precip.
Yesterday
High -- | Low -- °F
Precip. -- in
7:16 AM 4:36 PM
Waning Crescent, 2% visible
Pressure 30.26 in
Visibility 10.0 miles
Clouds Overcast 2700 ft
Windchill 33 °F
Dew Point 23 °F
Humidity 65%
Rainfall 0.00 in
Snow Depth Not available.
UV 1 out of 12
Pollen .10 out of 12
Air Quality Not available.
Flu Activity Not available.
METAR KWRI 201658Z AUTO 34007KT 10SM OVC027 00/M06 A3024 RMK AO2 SLP245 T00011060 $

More Conditions Fewer Conditions

Pressure 30.26 in
Visibility 10.0 miles
Clouds Overcast 2700 ft
Windchill 33 °F
Dew Point 23 °F
Humidity 65%
Rainfall 0.00 in
Snow Depth Not available.
UV 1 out of 12
Pollen .10 out of 12
Air Quality Not available.
Flu Activity Not available.
METAR KWRI 201658Z AUTO 34007KT 10SM OVC027 00/M06 A3024 RMK AO2 SLP245 T00011060 $

More Conditions Fewer Conditions

10-Day Weather Forecast

Almanac

Astronomy

Dec. 20, 2014 Rise Set
Actual Time
Civil Twilight
Nautical Twilight
Astronomical Twilight
Moon
Length of Visible Light
Length of Day
Tomorrow will be .
, % of the Moon is Illuminated

Today's Extremes

State Highs State Lows

Community

WunderPhotos

Upload Photos

1,779,226 photos uploaded!

WunderBlogs® & News

Nearby

Air Quality

  Air Quality AQ Index Pollutant
Not available.

Snow Depth

Station Depth Elevation

Earthquake Activity

City Distance Mag. Time & Date
Minimum magnitude displayed is 2.5.

Coastal Water Temperatures

Place Temperature

Nearby Weather Stations